Time;durP1;ratioP1;P1;durP2;ratioP2;P2;SDS_P1;SDS_P2;PMS_P1;PMS_P2;Temp;Humidity;BMP_temperature;BMP_pressure;BME280_temperature;BME280_humidity;BME280_pressure;Samples;Min_cycle;Max_cycle;Signal;HPM_P1;HPM_P2
2023/01/09 00:00:25;;;;;;;11.45;7.70;;;-3.40;60.60;;;;;;5071108;28;20056;-60
2023/01/09 00:02:51;;;;;;;11.68;7.25;;;-3.30;60.50;;;;;;5068697;28;20071;-60
2023/01/09 00:05:17;;;;;;;9.40;7.35;;;-3.20;60.30;;;;;;5070359;28;20024;-60
2023/01/09 00:07:43;;;;;;;11.60;8.05;;;-3.10;60.30;;;;;;5068377;28;20394;-59
2023/01/09 00:10:10;;;;;;;10.10;7.22;;;-3.00;60.20;;;;;;5067230;28;20099;-60
2023/01/09 00:12:35;;;;;;;10.63;7.32;;;-3.00;59.80;;;;;;5070021;28;20388;-52
2023/01/09 00:15:02;;;;;;;7.90;6.10;;;-3.00;59.90;;;;;;5070014;28;20041;-53
2023/01/09 00:17:27;;;;;;;8.93;7.20;;;-3.00;59.80;;;;;;5069353;28;20034;-66
2023/01/09 00:19:53;;;;;;;11.25;7.43;;;-2.90;59.90;;;;;;5065672;28;20025;-66
2023/01/09 00:22:19;;;;;;;9.77;7.32;;;-2.80;60.50;;;;;;5070468;28;20379;-60
2023/01/09 00:24:44;;;;;;;11.73;8.93;;;-2.80;59.70;;;;;;5067676;28;20032;-58
2023/01/09 00:27:11;;;;;;;12.00;9.10;;;-2.70;59.50;;;;;;5058391;28;20235;-60
2023/01/09 00:29:36;;;;;;;11.05;8.38;;;-2.70;59.30;;;;;;5068535;28;20032;-60
2023/01/09 00:32:02;;;;;;;19.23;12.32;;;-2.70;59.30;;;;;;5069938;28;20082;-58
2023/01/09 00:34:28;;;;;;;19.83;12.43;;;-2.70;58.90;;;;;;5065883;28;20020;-59
2023/01/09 00:36:55;;;;;;;18.83;12.23;;;-2.80;58.60;;;;;;5063028;28;20036;-65
2023/01/09 00:39:23;;;;;;;15.20;10.73;;;-2.90;58.70;;;;;;5065549;28;20067;-64
2023/01/09 00:41:54;;;;;;;16.20;11.98;;;-3.00;59.00;;;;;;5064913;28;20024;-56
2023/01/09 00:44:48;;;;;;;16.50;11.43;;;-3.00;58.90;;;;;;5069882;28;20032;-57
2023/01/09 00:47:29;;;;;;;18.50;11.77;;;-3.10;58.90;;;;;;5069439;28;20286;-57
2023/01/09 00:50:03;;;;;;;14.52;10.38;;;-3.10;59.00;;;;;;5066170;28;20123;-58
2023/01/09 00:52:32;;;;;;;15.20;9.73;;;-3.20;59.30;;;;;;5068933;28;20101;-57
2023/01/09 00:54:59;;;;;;;15.40;10.48;;;-3.10;59.50;;;;;;5070146;28;20025;-58
2023/01/09 00:57:24;;;;;;;15.48;9.55;;;-3.10;59.50;;;;;;5070301;28;20115;-58
2023/01/09 00:59:51;;;;;;;14.07;10.55;;;-3.00;59.50;;;;;;5069612;28;20112;-59
2023/01/09 01:02:17;;;;;;;16.60;9.77;;;-3.00;59.00;;;;;;5070271;28;20064;-67
2023/01/09 01:07:39;;;;;;;14.63;10.35;;;-2.90;59.00;;;;;;5069534;28;20055;-67
2023/01/09 01:10:25;;;;;;;13.52;10.70;;;-2.90;59.00;;;;;;5071249;28;20108;-66
2023/01/09 01:12:51;;;;;;;15.05;10.35;;;-2.80;59.00;;;;;;5073776;28;20072;-64
2023/01/09 01:15:17;;;;;;;15.52;9.60;;;-2.80;58.80;;;;;;5073670;28;20113;-67
2023/01/09 01:17:43;;;;;;;16.50;9.63;;;-2.80;58.70;;;;;;5070246;28;20032;-66
2023/01/09 01:20:12;;;;;;;11.63;7.75;;;-2.70;58.60;;;;;;5068590;28;20032;-67
2023/01/09 01:22:41;;;;;;;10.80;7.13;;;-2.70;58.40;;;;;;5070960;28;20067;-65
2023/01/09 01:25:07;;;;;;;7.75;6.15;;;-2.70;58.50;;;;;;5072519;28;20024;-66
2023/01/09 01:27:33;;;;;;;10.20;6.18;;;-2.60;58.70;;;;;;5073269;28;20060;-66
2023/01/09 01:29:58;;;;;;;12.48;7.75;;;-2.60;58.70;;;;;;5070968;28;20121;-67
2023/01/09 01:32:24;;;;;;;10.32;7.03;;;-2.50;58.60;;;;;;5073967;28;20032;-62
2023/01/09 01:34:49;;;;;;;10.35;7.20;;;-2.50;58.50;;;;;;5071394;28;20044;-67
2023/01/09 01:37:15;;;;;;;10.05;6.43;;;-2.50;58.40;;;;;;5072258;28;20028;-65
2023/01/09 01:39:41;;;;;;;7.95;5.80;;;-2.50;58.50;;;;;;5072864;28;20036;-58
2023/01/09 01:42:06;;;;;;;10.32;6.75;;;-2.50;58.60;;;;;;5073054;28;20024;-67
2023/01/09 01:45:08;;;;;;;10.70;7.40;;;-2.40;58.60;;;;;;5073095;28;20042;-67
2023/01/09 01:47:46;;;;;;;6.88;5.80;;;-2.40;58.50;;;;;;5072903;28;20604;-62
2023/01/09 01:50:49;;;;;;;11.00;7.18;;;-2.40;58.50;;;;;;5072200;28;20094;-66
2023/01/09 01:53:26;;;;;;;10.68;6.82;;;-2.40;58.40;;;;;;5072049;28;20447;-67
2023/01/09 01:55:52;;;;;;;8.63;6.80;;;-2.40;58.40;;;;;;5072566;28;20036;-61
2023/01/09 01:58:19;;;;;;;7.30;5.93;;;-2.40;58.50;;;;;;5070606;28;20028;-64
2023/01/09 02:00:46;;;;;;;7.93;6.18;;;-2.40;58.60;;;;;;5072703;28;20090;-59
2023/01/09 02:03:16;;;;;;;6.70;5.45;;;-2.40;58.50;;;;;;5072847;28;20048;-61
2023/01/09 02:05:41;;;;;;;10.00;6.68;;;-2.40;58.60;;;;;;5072814;28;20040;-60
2023/01/09 02:08:08;;;;;;;15.93;4.25;;;-2.40;58.70;;;;;;5070937;28;20033;-59
2023/01/09 02:10:35;;;;;;;11.10;6.80;;;-2.30;58.70;;;;;;5072371;28;20039;-52
2023/01/09 02:13:02;;;;;;;12.05;8.20;;;-2.30;58.70;;;;;;5071340;28;20056;-52
2023/01/09 02:15:33;;;;;;;13.05;8.88;;;-2.30;58.60;;;;;;5073547;28;20032;-53
2023/01/09 02:18:10;;;;;;;13.93;8.45;;;-2.30;58.60;;;;;;5071835;28;20056;-56
2023/01/09 02:20:38;;;;;;;11.45;8.02;;;-2.40;59.20;;;;;;5071443;28;20037;-59
2023/01/09 02:23:37;;;;;;;12.88;8.65;;;-2.50;58.70;;;;;;5072072;28;20549;-58
2023/01/09 02:26:22;;;;;;;11.35;7.78;;;-2.60;59.00;;;;;;5067932;28;20435;-57
2023/01/09 02:29:06;;;;;;;11.85;6.90;;;-2.70;59.30;;;;;;5062592;28;20108;-57
2023/01/09 02:31:55;;;;;;;7.75;5.75;;;-2.70;59.50;;;;;;5067413;28;20419;-59
2023/01/09 02:34:40;;;;;;;9.10;6.22;;;-2.70;59.60;;;;;;5070578;28;20247;-58
2023/01/09 02:37:06;;;;;;;8.85;6.40;;;-2.60;59.70;;;;;;5064969;28;20029;-57
2023/01/09 02:40:06;;;;;;;10.73;7.07;;;-2.50;59.70;;;;;;5070172;28;20085;-56
2023/01/09 02:42:34;;;;;;;8.13;6.32;;;-2.50;59.40;;;;;;5071057;28;20044;-57
2023/01/09 02:44:59;;;;;;;11.77;6.82;;;-2.50;59.40;;;;;;5071780;28;20154;-56
2023/01/09 02:47:28;;;;;;;10.50;7.15;;;-2.50;59.30;;;;;;5069969;28;20028;-57
2023/01/09 02:49:59;;;;;;;9.95;7.18;;;-2.40;59.40;;;;;;5068964;28;20086;-56
2023/01/09 02:53:02;;;;;;;10.98;7.00;;;-2.40;59.50;;;;;;5086635;28;20036;-56
2023/01/09 02:55:42;;;;;;;9.73;6.70;;;-2.40;59.50;;;;;;5066127;28;20033;-56
2023/01/09 02:58:32;;;;;;;9.23;7.05;;;-2.40;59.60;;;;;;5071908;28;20029;-55
2023/01/09 03:01:25;;;;;;;10.38;7.13;;;-2.40;59.50;;;;;;5060875;28;20036;-56
2023/01/09 03:03:55;;;;;;;10.15;7.13;;;-2.40;59.50;;;;;;5067602;28;20123;-58
2023/01/09 03:06:30;;;;;;;9.00;6.70;;;-2.40;59.60;;;;;;5071555;28;20068;-57
2023/01/09 03:09:05;;;;;;;8.82;6.90;;;-2.40;59.80;;;;;;5070705;28;20032;-57
2023/01/09 03:11:37;;;;;;;10.32;6.63;;;-2.40;60.00;;;;;;5070783;28;20491;-57
2023/01/09 03:14:10;;;;;;;10.82;7.10;;;-2.40;60.10;;;;;;5067930;28;20050;-57
2023/01/09 03:16:37;;;;;;;8.85;6.57;;;-2.40;60.10;;;;;;5071580;28;20028;-57
2023/01/09 03:19:11;;;;;;;12.25;7.63;;;-2.30;60.10;;;;;;5069390;28;20028;-57
2023/01/09 03:21:38;;;;;;;8.18;5.85;;;-2.30;60.10;;;;;;5068322;28;20382;-57
2023/01/09 03:24:04;;;;;;;10.38;7.00;;;-2.20;60.10;;;;;;5068928;28;20435;-56
2023/01/09 03:26:30;;;;;;;9.98;6.97;;;-2.20;60.20;;;;;;5071122;28;20116;-55
2023/01/09 03:28:57;;;;;;;9.30;6.53;;;-2.20;60.20;;;;;;5070646;28;20032;-57
2023/01/09 03:31:23;;;;;;;7.95;6.35;;;-2.20;60.30;;;;;;5071246;28;20028;-58
2023/01/09 03:33:49;;;;;;;9.63;6.18;;;-2.10;60.40;;;;;;5069071;28;20043;-56
2023/01/09 03:36:16;;;;;;;8.35;6.03;;;-2.00;60.50;;;;;;5068461;28;20033;-56
2023/01/09 03:38:41;;;;;;;8.57;6.93;;;-2.00;60.30;;;;;;5063759;28;20032;-57
2023/01/09 03:41:07;;;;;;;9.88;6.82;;;-1.90;60.40;;;;;;5066408;28;20033;-57
2023/01/09 03:43:34;;;;;;;12.38;6.75;;;-2.00;60.40;;;;;;5070042;28;20039;-57
2023/01/09 03:46:00;;;;;;;13.13;8.27;;;-1.90;60.50;;;;;;5070300;28;20036;-58
2023/01/09 03:48:25;;;;;;;9.13;6.78;;;-1.90;60.50;;;;;;5070924;28;20025;-57
2023/01/09 03:50:52;;;;;;;10.73;7.25;;;-1.90;60.50;;;;;;5068743;28;20029;-55
2023/01/09 03:53:20;;;;;;;9.90;7.05;;;-1.90;60.60;;;;;;5061431;28;20433;-58
2023/01/09 03:55:49;;;;;;;10.98;8.07;;;-1.90;60.70;;;;;;5070615;28;20029;-56
2023/01/09 03:58:15;;;;;;;15.27;9.32;;;-1.80;60.80;;;;;;5070940;28;20032;-56
2023/01/09 04:00:42;;;;;;;10.85;8.25;;;-1.80;60.90;;;;;;5070155;28;20380;-58
2023/01/09 04:03:08;;;;;;;10.93;7.60;;;-1.80;61.00;;;;;;5068131;28;20036;-56
2023/01/09 04:05:34;;;;;;;14.10;8.45;;;-1.80;61.10;;;;;;5063411;28;20123;-57
2023/01/09 04:08:01;;;;;;;13.10;8.52;;;-1.80;61.20;;;;;;5069353;28;20055;-57
2023/01/09 04:10:26;;;;;;;14.30;8.23;;;-1.90;61.10;;;;;;5070468;28;20035;-57
2023/01/09 04:12:52;;;;;;;12.68;7.75;;;-1.90;61.30;;;;;;5070088;28;20028;-55
2023/01/09 04:15:18;;;;;;;12.20;8.20;;;-1.90;61.40;;;;;;5070146;28;20044;-56
2023/01/09 04:17:44;;;;;;;10.48;7.65;;;-1.90;61.60;;;;;;5070911;28;20475;-57
2023/01/09 04:20:10;;;;;;;10.93;7.68;;;-1.90;61.70;;;;;;5064976;28;20042;-57
2023/01/09 04:22:36;;;;;;;10.50;7.72;;;-2.00;61.80;;;;;;5068465;28;20068;-58
2023/01/09 04:25:02;;;;;;;10.18;7.05;;;-2.00;61.80;;;;;;5063209;28;20119;-56
2023/01/09 04:27:27;;;;;;;10.65;7.65;;;-2.00;61.90;;;;;;5069766;28;20415;-57
2023/01/09 04:29:53;;;;;;;8.27;6.85;;;-2.00;62.00;;;;;;5068974;28;20036;-57
2023/01/09 04:32:19;;;;;;;9.75;7.88;;;-2.00;62.10;;;;;;5070020;28;20028;-57
2023/01/09 04:34:44;;;;;;;14.55;8.07;;;-2.00;62.20;;;;;;5069094;28;20036;-56
2023/01/09 04:37:10;;;;;;;12.32;8.63;;;-1.90;62.30;;;;;;5070043;28;20032;-57
2023/01/09 04:39:36;;;;;;;10.00;8.07;;;-1.90;62.30;;;;;;5068693;28;20371;-57
2023/01/09 04:42:02;;;;;;;12.15;8.73;;;-1.90;62.40;;;;;;5069027;28;20055;-56
2023/01/09 04:44:28;;;;;;;12.32;8.73;;;-1.90;62.40;;;;;;5069858;28;20021;-58
2023/01/09 04:46:56;;;;;;;15.40;9.27;;;-1.80;62.70;;;;;;5073691;28;20037;-57
2023/01/09 04:49:21;;;;;;;15.05;9.98;;;-1.80;62.50;;;;;;5072590;28;20028;-56
2023/01/09 04:51:47;;;;;;;15.57;10.45;;;-1.70;62.50;;;;;;5073573;28;20617;-57
2023/01/09 04:54:13;;;;;;;14.85;9.38;;;-1.70;62.50;;;;;;5072970;28;20031;-56
2023/01/09 04:56:39;;;;;;;18.13;10.93;;;-1.70;62.50;;;;;;5070154;28;20028;-58
2023/01/09 04:59:05;;;;;;;14.00;9.35;;;-1.70;62.50;;;;;;5073863;28;20027;-56
2023/01/09 05:01:31;;;;;;;11.90;9.23;;;-1.70;62.60;;;;;;5072688;28;20041;-56
2023/01/09 05:03:57;;;;;;;13.13;9.52;;;-1.70;62.70;;;;;;5071411;28;20040;-58
2023/01/09 05:06:23;;;;;;;12.48;8.73;;;-1.70;62.60;;;;;;5072549;28;20477;-56
2023/01/09 05:08:48;;;;;;;12.25;8.95;;;-1.70;62.70;;;;;;5072741;28;20039;-57
2023/01/09 05:11:14;;;;;;;13.60;9.13;;;-1.70;62.80;;;;;;5072113;28;20047;-57
2023/01/09 05:13:40;;;;;;;14.65;9.05;;;-1.70;62.90;;;;;;5072068;28;20475;-54
2023/01/09 05:16:06;;;;;;;13.00;9.13;;;-1.70;62.90;;;;;;5066425;28;20036;-57
2023/01/09 05:18:31;;;;;;;13.82;9.77;;;-1.70;63.00;;;;;;5068309;28;20075;-58
2023/01/09 05:20:57;;;;;;;10.35;7.97;;;-1.70;63.00;;;;;;5072774;28;20059;-58
2023/01/09 05:23:22;;;;;;;11.10;8.65;;;-1.70;63.00;;;;;;5072939;28;20036;-57
2023/01/09 05:25:48;;;;;;;11.57;8.20;;;-1.60;63.20;;;;;;5071516;28;20028;-58
2023/01/09 05:28:14;;;;;;;13.43;8.52;;;-1.60;63.10;;;;;;5070970;28;20028;-56
2023/01/09 05:30:39;;;;;;;11.85;8.38;;;-1.60;63.10;;;;;;5071621;28;20064;-57
2023/01/09 05:33:05;;;;;;;12.15;8.32;;;-1.60;63.20;;;;;;5072597;28;20433;-54
2023/01/09 05:35:31;;;;;;;9.88;7.70;;;-1.60;63.20;;;;;;5071424;28;20055;-57
2023/01/09 05:37:57;;;;;;;15.40;7.72;;;-1.60;63.20;;;;;;5067305;28;20113;-56
2023/01/09 05:40:22;;;;;;;9.88;7.30;;;-1.50;63.40;;;;;;5068308;28;20024;-56
2023/01/09 05:42:48;;;;;;;13.25;8.70;;;-1.50;63.40;;;;;;5071292;28;20062;-57
2023/01/09 05:45:14;;;;;;;9.95;7.22;;;-1.50;63.20;;;;;;5073194;28;20116;-57
2023/01/09 05:47:39;;;;;;;10.95;7.55;;;-1.50;63.30;;;;;;5072813;28;20082;-57
2023/01/09 05:50:05;;;;;;;14.15;8.85;;;-1.40;63.40;;;;;;5062892;28;20028;-57
2023/01/09 05:52:31;;;;;;;10.75;8.20;;;-1.40;63.30;;;;;;5070781;28;20040;-56
2023/01/09 05:54:57;;;;;;;11.50;7.78;;;-1.40;63.40;;;;;;5072365;28;20499;-57
2023/01/09 05:57:22;;;;;;;12.88;8.88;;;-1.40;63.40;;;;;;5070449;28;20077;-56
2023/01/09 05:59:48;;;;;;;14.15;8.98;;;-1.40;63.50;;;;;;5070883;28;20470;-58
2023/01/09 06:02:14;;;;;;;12.70;9.18;;;-1.40;63.50;;;;;;5067053;28;20151;-58
2023/01/09 06:05:40;;;;;;;13.13;8.13;;;-1.40;63.10;;;;;;5102992;27;20412;-57
2023/01/09 06:08:06;;;;;;;14.57;9.80;;;-1.40;63.50;;;;;;5089641;28;20097;-58
2023/01/09 06:10:31;;;;;;;9.95;7.78;;;-1.30;63.60;;;;;;5090874;28;20064;-57
2023/01/09 06:12:57;;;;;;;11.35;8.05;;;-1.30;63.60;;;;;;5086892;28;20059;-58
2023/01/09 06:15:22;;;;;;;10.55;7.85;;;-1.20;63.70;;;;;;5085738;28;20029;-57
2023/01/09 06:17:48;;;;;;;10.23;7.65;;;-1.20;63.80;;;;;;5087470;28;20029;-56
2023/01/09 06:20:14;;;;;;;10.35;7.50;;;-1.20;63.90;;;;;;5087105;28;20028;-65
2023/01/09 06:22:39;;;;;;;14.07;8.75;;;-1.10;63.90;;;;;;5070550;28;20020;-62
2023/01/09 06:25:06;;;;;;;11.15;8.23;;;-1.10;64.00;;;;;;5086876;28;20024;-64
2023/01/09 06:27:31;;;;;;;18.70;11.68;;;-1.00;64.00;;;;;;5083058;28;20042;-65
2023/01/09 06:29:57;;;;;;;11.68;8.27;;;-1.00;64.10;;;;;;5081763;28;20028;-64
2023/01/09 06:32:23;;;;;;;10.80;8.10;;;-1.00;64.20;;;;;;5086263;28;20059;-65
2023/01/09 06:34:48;;;;;;;15.55;9.38;;;-1.00;64.20;;;;;;5083064;28;20032;-64
2023/01/09 06:37:14;;;;;;;13.00;8.30;;;-1.00;64.30;;;;;;5084133;28;20052;-60
2023/01/09 06:39:40;;;;;;;13.32;9.32;;;-1.00;64.50;;;;;;5086983;28;20040;-59
2023/01/09 06:42:05;;;;;;;15.70;9.68;;;-1.00;64.60;;;;;;5086325;28;20496;-60
2023/01/09 06:44:32;;;;;;;15.95;10.73;;;-1.00;64.70;;;;;;5079636;28;20036;-60
2023/01/09 06:46:58;;;;;;;16.58;10.60;;;-1.00;64.70;;;;;;5076918;28;20036;-60
2023/01/09 06:49:23;;;;;;;15.13;11.00;;;-1.00;64.90;;;;;;5080619;28;20024;-58
2023/01/09 06:51:52;;;;;;;12.90;9.52;;;-1.00;65.00;;;;;;5083341;28;20375;-60
2023/01/09 06:54:18;;;;;;;12.85;9.43;;;-1.00;65.20;;;;;;5081459;28;20050;-59
2023/01/09 06:56:44;;;;;;;14.40;9.43;;;-1.00;65.40;;;;;;5073582;28;20031;-60
2023/01/09 06:59:11;;;;;;;15.73;10.52;;;-0.90;65.50;;;;;;5081230;28;20028;-60
2023/01/09 07:01:38;;;;;;;11.98;8.93;;;-0.90;65.60;;;;;;5072862;28;20052;-60
2023/01/09 07:04:05;;;;;;;15.30;9.75;;;-0.90;65.70;;;;;;5070425;28;20056;-58
2023/01/09 07:06:32;;;;;;;13.75;8.73;;;-0.80;65.80;;;;;;5078864;28;20031;-59
2023/01/09 07:08:57;;;;;;;15.32;10.90;;;-0.80;65.90;;;;;;5076662;28;20038;-58
2023/01/09 07:11:23;;;;;;;15.68;9.38;;;-0.70;66.60;;;;;;5072731;28;20032;-58
2023/01/09 07:13:49;;;;;;;12.73;8.38;;;-0.70;65.90;;;;;;5067743;28;20304;-57
2023/01/09 07:16:15;;;;;;;15.05;9.98;;;-0.60;66.00;;;;;;5054219;28;20105;-58
2023/01/09 07:18:41;;;;;;;16.25;10.68;;;-0.60;65.90;;;;;;5061513;28;20032;-57
2023/01/09 07:21:06;;;;;;;16.25;10.95;;;-0.60;65.90;;;;;;5057708;28;20389;-54
2023/01/09 07:23:33;;;;;;;22.58;12.85;;;-0.60;66.00;;;;;;5058635;28;20036;-56
2023/01/09 07:25:59;;;;;;;14.50;10.50;;;-0.50;65.90;;;;;;5062264;28;20040;-60
2023/01/09 07:28:25;;;;;;;11.52;9.00;;;-0.50;65.90;;;;;;5059467;28;20032;-59
2023/01/09 07:30:50;;;;;;;14.18;9.73;;;-0.50;66.00;;;;;;5068168;28;20895;-56
2023/01/09 07:33:16;;;;;;;10.35;7.85;;;-0.50;66.00;;;;;;5071342;28;20059;-58
2023/01/09 07:35:42;;;;;;;14.00;8.95;;;-0.50;65.90;;;;;;5066667;28;20085;-63
2023/01/09 07:38:08;;;;;;;15.63;9.73;;;-0.40;65.90;;;;;;5057493;28;20051;-65
2023/01/09 07:40:33;;;;;;;12.45;9.05;;;-0.40;65.90;;;;;;5052878;28;20089;-60
2023/01/09 07:42:59;;;;;;;14.82;9.95;;;-0.40;65.90;;;;;;5056778;28;20326;-64
2023/01/09 07:45:25;;;;;;;12.18;8.25;;;-0.40;65.80;;;;;;5056722;28;20051;-63
2023/01/09 07:47:51;;;;;;;15.75;8.00;;;-0.30;65.80;;;;;;5047467;28;20040;-64
2023/01/09 07:50:17;;;;;;;11.00;7.90;;;-0.30;65.80;;;;;;5039615;28;20136;-61
2023/01/09 07:52:46;;;;;;;12.13;8.55;;;-0.30;65.90;;;;;;5039875;28;20036;-66
2023/01/09 07:55:12;;;;;;;15.38;9.68;;;-0.30;65.80;;;;;;5046228;28;20047;-61
2023/01/09 07:57:38;;;;;;;11.25;8.13;;;-0.20;66.00;;;;;;5037924;28;20041;-62
2023/01/09 08:00:06;;;;;;;13.05;8.55;;;-0.20;66.00;;;;;;5034126;28;20495;-60
2023/01/09 08:02:32;;;;;;;14.30;8.77;;;-0.20;66.10;;;;;;5039211;28;20039;-57
2023/01/09 08:04:57;;;;;;;11.95;7.22;;;-0.20;66.10;;;;;;5044064;28;20055;-59
2023/01/09 08:07:23;;;;;;;13.18;8.93;;;-0.30;66.20;;;;;;5045297;28;20032;-61
2023/01/09 08:09:49;;;;;;;9.15;6.93;;;-0.20;66.30;;;;;;5026670;28;20029;-62
2023/01/09 08:12:15;;;;;;;12.13;7.28;;;-0.20;66.30;;;;;;5034023;28;21023;-60
2023/01/09 08:14:40;;;;;;;7.45;6.10;;;-0.20;66.40;;;;;;5022542;28;20047;-61
2023/01/09 08:17:08;;;;;;;12.32;6.55;;;-0.20;66.50;;;;;;5033325;28;20040;-61
2023/01/09 08:19:33;;;;;;;10.85;6.57;;;-0.20;66.60;;;;;;5035068;28;20052;-59
2023/01/09 08:21:59;;;;;;;10.32;7.03;;;-0.10;66.60;;;;;;5030433;28;20143;-63
2023/01/09 08:24:25;;;;;;;10.38;6.20;;;-0.10;66.60;;;;;;5034595;28;20485;-63
2023/01/09 08:26:50;;;;;;;9.13;6.53;;;-0.10;66.60;;;;;;5033684;28;20044;-61
2023/01/09 08:29:16;;;;;;;9.38;6.43;;;-0.10;66.70;;;;;;5032401;28;20473;-59
2023/01/09 08:31:42;;;;;;;10.10;6.60;;;-0.10;66.70;;;;;;5029711;28;20035;-62
2023/01/09 08:34:07;;;;;;;8.85;6.15;;;0.00;66.90;;;;;;5013542;28;20040;-63
2023/01/09 08:36:33;;;;;;;11.65;7.80;;;0.00;66.80;;;;;;5028540;28;20035;-61
2023/01/09 08:38:59;;;;;;;10.98;7.63;;;0.00;67.40;;;;;;5026896;28;20091;-65
2023/01/09 08:47:05;;;;;;;6.00;5.18;;;0.10;67.00;;;;;;5042284;28;20581;-60
2023/01/09 08:49:32;;;;;;;7.95;5.75;;;0.10;67.00;;;;;;5036462;28;20024;-61
2023/01/09 08:51:58;;;;;;;7.93;5.72;;;0.10;67.00;;;;;;5034989;28;20028;-67
2023/01/09 08:54:24;;;;;;;8.48;6.05;;;0.10;67.00;;;;;;5036014;28;20595;-62
2023/01/09 08:56:49;;;;;;;7.13;5.38;;;0.10;67.10;;;;;;5029807;28;20040;-60
2023/01/09 08:59:15;;;;;;;7.57;5.03;;;0.20;67.10;;;;;;5025528;28;20054;-59
2023/01/09 09:01:41;;;;;;;8.52;6.10;;;0.20;67.10;;;;;;5043626;28;20024;-60
2023/01/09 09:04:07;;;;;;;7.28;4.93;;;0.20;67.10;;;;;;5033779;28;20136;-60
2023/01/09 09:06:33;;;;;;;8.10;5.43;;;0.30;67.00;;;;;;5043224;28;20043;-61
2023/01/09 09:09:02;;;;;;;7.15;4.65;;;0.30;67.00;;;;;;5034791;28;20043;-63
2023/01/09 09:11:34;;;;;;;6.65;4.80;;;0.30;67.00;;;;;;5032198;28;21974;-60
2023/01/09 09:15:11;;;;;;;6.05;4.47;;;0.40;66.80;;;;;;5040228;28;20033;-65
2023/01/09 09:16:46;;;;;;;8.35;4.95;;;0.40;66.30;;;;;;5033426;28;20032;-68
2023/01/09 09:19:12;;;;;;;5.35;4.18;;;0.40;66.80;;;;;;5040796;28;20050;-65
2023/01/09 09:21:37;;;;;;;6.35;4.65;;;0.40;66.70;;;;;;5047346;28;20676;-60
2023/01/09 09:24:03;;;;;;;5.57;4.30;;;0.50;66.70;;;;;;5040307;28;20033;-62
2023/01/09 09:26:28;;;;;;;6.55;4.53;;;0.60;66.60;;;;;;5035206;28;20032;-60
2023/01/09 09:28:54;;;;;;;6.70;4.65;;;0.60;66.40;;;;;;5038170;28;20028;-61
2023/01/09 09:31:20;;;;;;;6.70;4.75;;;0.60;66.30;;;;;;5030797;28;21676;-67
2023/01/09 09:33:45;;;;;;;7.90;4.65;;;0.70;66.20;;;;;;5028957;28;20036;-65
2023/01/09 09:36:11;;;;;;;7.45;4.95;;;0.70;66.10;;;;;;5031289;28;20033;-64
2023/01/09 09:38:36;;;;;;;10.15;5.57;;;0.70;66.20;;;;;;5032483;28;20037;-62
2023/01/09 09:44:42;;;;;;;6.40;4.43;;;0.70;66.30;;;;;;5032227;28;20390;-64
2023/01/09 09:47:39;;;;;;;5.65;4.00;;;0.60;66.40;;;;;;5035410;28;20031;-60
2023/01/09 09:50:13;;;;;;;7.03;4.78;;;0.60;66.70;;;;;;5031738;28;20568;-60
2023/01/09 09:52:56;;;;;;;6.28;4.78;;;0.60;66.90;;;;;;5037248;28;20099;-63
2023/01/09 09:55:32;;;;;;;8.05;5.05;;;0.60;67.10;;;;;;5031938;28;20036;-65
2023/01/09 09:58:01;;;;;;;7.80;5.03;;;0.70;67.00;;;;;;5034924;28;20028;-61
2023/01/09 10:00:27;;;;;;;7.05;4.88;;;0.70;67.10;;;;;;5034655;28;20029;-61
2023/01/09 10:03:04;;;;;;;6.78;5.10;;;0.70;67.00;;;;;;5024980;28;20032;-61
2023/01/09 10:05:36;;;;;;;7.78;5.55;;;0.80;66.90;;;;;;5030797;28;20052;-64
2023/01/09 10:08:05;;;;;;;6.55;4.63;;;0.90;67.00;;;;;;5038826;28;20025;-64
2023/01/09 10:10:43;;;;;;;6.13;4.47;;;0.90;66.70;;;;;;5036043;28;21111;-60
2023/01/09 10:16:25;;;;;;;6.13;4.50;;;1.00;66.40;;;;;;5024048;28;20047;-63
2023/01/09 10:19:20;;;;;;;7.18;4.80;;;0.90;66.30;;;;;;5023248;28;20066;-66
2023/01/09 10:22:04;;;;;;;7.43;4.97;;;1.00;66.40;;;;;;4985721;28;20072;-62
2023/01/09 10:24:53;;;;;;;6.03;4.63;;;1.00;66.50;;;;;;5045237;28;20032;-63
2023/01/09 10:27:30;;;;;;;5.07;3.90;;;1.00;66.50;;;;;;5033921;28;20985;-58
2023/01/09 10:30:23;;;;;;;5.68;4.32;;;1.00;66.50;;;;;;5028951;28;20033;-64
2023/01/09 10:33:10;;;;;;;6.68;4.65;;;1.00;66.40;;;;;;5020433;28;20024;-63
2023/01/09 10:35:42;;;;;;;6.35;4.00;;;1.00;66.30;;;;;;5029916;28;20041;-60
2023/01/09 10:38:10;;;;;;;7.97;4.97;;;1.00;66.30;;;;;;5028080;28;20037;-65
2023/01/09 10:40:43;;;;;;;8.13;4.65;;;1.00;66.40;;;;;;5039599;28;20036;-63
2023/01/09 10:43:20;;;;;;;5.68;4.25;;;1.00;66.40;;;;;;5035122;28;20054;-65
2023/01/09 10:45:53;;;;;;;4.88;3.83;;;1.10;66.60;;;;;;5035808;28;21105;-65
2023/01/09 10:48:37;;;;;;;7.00;4.50;;;1.10;66.60;;;;;;5028474;28;20033;-63
2023/01/09 10:51:18;;;;;;;10.02;5.68;;;1.10;66.60;;;;;;5027054;28;20063;-60
2023/01/09 10:53:55;;;;;;;10.15;5.30;;;1.10;66.50;;;;;;5027450;28;20029;-63
2023/01/09 10:56:36;;;;;;;6.35;4.75;;;1.10;66.50;;;;;;5041023;28;20037;-59
2023/01/09 10:59:01;;;;;;;8.50;5.30;;;1.10;66.50;;;;;;5036639;28;20028;-61
2023/01/09 11:01:31;;;;;;;6.75;4.35;;;1.00;66.70;;;;;;5023723;28;20057;-62
2023/01/09 11:04:01;;;;;;;6.65;4.78;;;1.00;66.70;;;;;;5031980;28;20117;-62
2023/01/09 11:06:43;;;;;;;6.85;4.72;;;1.00;66.90;;;;;;5034930;28;20035;-66
2023/01/09 11:09:09;;;;;;;7.28;4.43;;;1.00;66.80;;;;;;5035838;28;20037;-67
2023/01/09 11:11:43;;;;;;;8.57;4.88;;;1.00;66.90;;;;;;5013730;28;20033;-59
2023/01/09 11:14:32;;;;;;;7.05;5.47;;;1.00;66.80;;;;;;5041180;28;20028;-61
2023/01/09 11:17:00;;;;;;;5.50;4.18;;;1.10;66.90;;;;;;5044560;28;20036;-59
2023/01/09 11:19:27;;;;;;;6.78;4.93;;;1.10;67.00;;;;;;5044530;28;20028;-65
2023/01/09 11:22:14;;;;;;;7.28;4.43;;;1.10;67.00;;;;;;5036071;28;20052;-63
2023/01/09 11:24:40;;;;;;;5.38;4.35;;;1.20;66.90;;;;;;5047177;28;20040;-61
2023/01/09 11:27:12;;;;;;;6.90;4.65;;;1.20;66.90;;;;;;5041505;28;20032;-65
2023/01/09 11:29:38;;;;;;;6.13;4.82;;;1.20;66.80;;;;;;5041870;28;20074;-62
2023/01/09 11:32:04;;;;;;;8.20;4.70;;;1.20;66.80;;;;;;5034625;28;20083;-62
2023/01/09 11:34:33;;;;;;;7.50;4.57;;;1.20;66.90;;;;;;5045696;28;20040;-66
2023/01/09 11:37:24;;;;;;;9.30;5.68;;;1.20;67.00;;;;;;5042096;28;20027;-65
2023/01/09 11:39:50;;;;;;;8.52;5.18;;;1.20;66.90;;;;;;5038005;28;20040;-69
2023/01/09 11:45:26;;;;;;;6.97;4.97;;;1.20;67.10;;;;;;5038390;28;20042;-64
2023/01/09 11:47:52;;;;;;;7.15;5.30;;;1.30;67.00;;;;;;5042437;28;21195;-63
2023/01/09 11:50:29;;;;;;;4.75;3.97;;;1.30;67.10;;;;;;5049306;28;20051;-66
2023/01/09 11:53:16;;;;;;;7.70;5.38;;;1.20;67.00;;;;;;5035948;28;20612;-62
2023/01/09 11:55:43;;;;;;;6.07;4.40;;;1.20;67.00;;;;;;5046365;28;20742;-63
2023/01/09 11:58:20;;;;;;;7.65;5.43;;;1.30;67.20;;;;;;5041152;28;20110;-61
2023/01/09 12:04:19;;;;;;;8.60;6.40;;;1.30;66.70;;;;;;5101067;27;20495;-60
2023/01/09 12:06:55;;;;;;;10.52;7.13;;;1.30;67.00;;;;;;5073904;28;20118;-62
2023/01/09 12:09:42;;;;;;;8.27;5.15;;;1.40;67.10;;;;;;5079282;28;20019;-67
2023/01/09 12:12:28;;;;;;;9.55;6.80;;;1.40;67.20;;;;;;5069165;28;20044;-68
2023/01/09 12:15:11;;;;;;;8.48;6.50;;;1.50;67.30;;;;;;5076852;28;20179;-61
2023/01/09 12:17:52;;;;;;;9.30;6.15;;;1.50;67.30;;;;;;5079614;28;20032;-62
2023/01/09 12:20:46;;;;;;;8.00;6.23;;;1.50;67.30;;;;;;5070725;28;20028;-65
2023/01/09 12:23:17;;;;;;;8.20;5.97;;;1.50;67.20;;;;;;5079837;28;20590;-61
2023/01/09 12:26:01;;;;;;;;;;;1.50;67.30;;;;;;5065901;28;20051;-64
2023/01/09 12:29:09;;;;;;;8.70;5.65;;;1.40;67.50;;;;;;5076781;28;19943;-66
2023/01/09 12:31:56;;;;;;;7.07;5.22;;;1.40;67.40;;;;;;5075527;28;20043;-62
2023/01/09 12:34:29;;;;;;;7.25;4.78;;;1.40;67.60;;;;;;5071765;28;20575;-66
2023/01/09 12:37:21;;;;;;;8.68;5.45;;;1.40;67.70;;;;;;5062554;28;20054;-61
2023/01/09 12:40:05;;;;;;;9.18;6.40;;;1.40;67.80;;;;;;5069136;28;20156;-63
2023/01/09 12:42:52;;;;;;;10.30;7.28;;;1.40;68.00;;;;;;5068840;28;20154;-65
2023/01/09 12:45:24;;;;;;;10.73;7.03;;;1.40;67.90;;;;;;5067192;28;20127;-64
2023/01/09 12:47:51;;;;;;;9.23;6.75;;;1.40;68.00;;;;;;5074168;28;20385;-63
2023/01/09 12:50:23;;;;;;;10.32;6.43;;;1.50;68.00;;;;;;5070956;28;20040;-61
2023/01/09 12:53:00;;;;;;;11.40;7.90;;;1.50;68.00;;;;;;5065586;28;20028;-65
2023/01/09 12:55:31;;;;;;;10.30;7.07;;;1.50;67.90;;;;;;5068419;28;20035;-63
2023/01/09 12:58:01;;;;;;;8.57;5.82;;;1.50;67.80;;;;;;5077061;28;20877;-63
2023/01/09 13:00:46;;;;;;;10.05;6.07;;;1.50;67.80;;;;;;5078644;28;20046;-65
2023/01/09 13:03:40;;;;;;;7.75;5.32;;;1.60;67.80;;;;;;5077443;28;20154;-68
2023/01/09 13:06:13;;;;;;;7.25;5.28;;;1.60;67.80;;;;;;5060589;28;20135;-62
2023/01/09 13:08:43;;;;;;;8.95;5.97;;;1.60;67.70;;;;;;5074464;28;20036;-59
2023/01/09 13:11:23;;;;;;;9.25;6.10;;;1.70;67.60;;;;;;5071129;28;20644;-64
2023/01/09 13:14:12;;;;;;;6.70;5.00;;;1.80;68.10;;;;;;5063043;28;20383;-63
2023/01/09 13:16:48;;;;;;;7.68;5.50;;;1.80;67.10;;;;;;5058936;28;20409;-65
2023/01/09 13:19:28;;;;;;;9.95;5.10;;;1.90;67.00;;;;;;5053817;28;20086;-65
2023/01/09 13:21:56;;;;;;;7.40;5.80;;;1.90;66.70;;;;;;5058165;28;20035;-65